Time;durP1;ratioP1;P1;durP2;ratioP2;P2;SDS_P1;SDS_P2;PMS_P1;PMS_P2;Temp;Humidity;BMP_temperature;BMP_pressure;BME280_temperature;BME280_humidity;BME280_pressure;Samples;Min_cycle;Max_cycle;Signal;HPM_P1;HPM_P2
2021/12/07 00:00:27;;;;;;;2.30;1.52;;;;;;;4.60;100.00;99457.84;8398101;28;20051;-60
2021/12/07 00:04:28;;;;;;;2.70;1.60;;;;;;;4.42;100.00;99454.84;8399194;28;20044;-60
2021/12/07 00:08:29;;;;;;;2.22;2.00;;;;;;;4.36;100.00;99459.88;8401492;28;20496;-60
2021/12/07 00:12:35;;;;;;;3.80;2.38;;;;;;;4.40;100.00;99459.50;8398851;28;20056;-60
2021/12/07 00:16:35;;;;;;;3.97;2.60;;;;;;;4.52;100.00;99457.63;8387633;28;20037;-59
2021/12/07 00:20:36;;;;;;;5.03;3.13;;;;;;;4.59;100.00;99466.81;8371189;28;20041;-60
2021/12/07 00:24:36;;;;;;;4.35;3.38;;;;;;;4.71;100.00;99477.38;8371628;28;20040;-59
2021/12/07 00:28:37;;;;;;;5.90;3.83;;;;;;;4.86;100.00;99469.84;8363335;28;20102;-59
2021/12/07 00:32:43;;;;;;;6.18;4.35;;;;;;;5.04;100.00;99462.94;8361582;28;20041;-60
2021/12/07 00:36:47;;;;;;;8.20;5.25;;;;;;;5.19;100.00;99475.00;8361228;28;20028;-60
2021/12/07 00:40:49;;;;;;;6.90;5.50;;;;;;;5.31;100.00;99479.31;8364620;28;20033;-60
2021/12/07 00:44:49;;;;;;;12.52;6.10;;;;;;;5.39;100.00;99484.81;8361750;28;20032;-60
2021/12/07 00:48:50;;;;;;;13.05;7.78;;;;;;;5.48;100.00;99479.53;8357827;28;20067;-60
2021/12/07 00:52:51;;;;;;;16.40;8.55;;;;;;;5.57;100.00;99484.09;8360402;28;20392;-59
2021/12/07 00:56:51;;;;;;;19.63;10.05;;;;;;;5.66;100.00;99490.47;8363346;28;20484;-60
2021/12/07 01:00:56;;;;;;;20.33;10.20;;;;;;;5.74;100.00;99496.00;8368214;28;20361;-60
2021/12/07 01:05:03;;;;;;;23.65;11.30;;;;;;;5.79;100.00;99499.97;8397323;28;20071;-60
2021/12/07 01:09:15;;;;;;;23.33;12.15;;;;;;;5.89;100.00;99505.41;8385124;28;20830;-60
2021/12/07 01:26:16;;;;;;;25.75;10.88;;;;;;;6.11;100.00;99542.75;8364963;28;20040;-59
2021/12/07 01:30:21;;;;;;;21.23;9.80;;;;;;;6.12;100.00;99538.22;8362522;28;20555;-59
2021/12/07 01:34:52;;;;;;;16.35;7.55;;;;;;;6.12;100.00;99555.19;8362433;28;20116;-60
2021/12/07 01:40:10;;;;;;;9.15;5.35;;;;;;;6.09;100.00;99555.44;8364481;28;20037;-60
2021/12/07 01:43:37;;;;;;;8.10;3.92;;;;;;;6.00;100.00;99556.25;8358856;28;20033;-60
2021/12/07 01:51:44;;;;;;;7.43;1.92;;;;;;;6.00;100.00;99585.75;8356592;28;20040;-60
2021/12/07 02:00:09;;;;;;;7.93;2.97;;;;;;;6.07;100.00;99611.06;8354803;28;20493;-60
2021/12/07 02:04:10;;;;;;;12.35;5.63;;;;;;;6.13;100.00;99615.88;8377184;28;20029;-60
2021/12/07 02:08:10;;;;;;;14.65;5.68;;;;;;;6.14;100.00;99622.97;8378349;28;20032;-60
2021/12/07 02:12:12;;;;;;;17.92;7.88;;;;;;;6.22;100.00;99630.34;8346554;28;20301;-60
2021/12/07 02:16:15;;;;;;;21.17;7.55;;;;;;;6.22;100.00;99635.72;8361083;28;20033;-60
2021/12/07 02:20:17;;;;;;;18.08;7.50;;;;;;;6.26;100.00;99638.00;8365129;28;20044;-60
2021/12/07 02:24:18;;;;;;;21.85;8.30;;;;;;;6.28;100.00;99653.97;8358318;28;20033;-60
2021/12/07 02:28:18;;;;;;;24.60;7.93;;;;;;;6.35;100.00;99647.94;8345314;28;20048;-60
2021/12/07 02:32:18;;;;;;;21.00;8.52;;;;;;;6.44;100.00;99657.84;8370870;28;20037;-60
2021/12/07 02:36:19;;;;;;;18.33;7.57;;;;;;;6.46;100.00;99661.22;8380814;28;20094;-60
2021/12/07 02:40:20;;;;;;;26.58;8.85;;;;;;;6.53;100.00;99673.16;8359255;28;20218;-60
2021/12/07 02:44:20;;;;;;;23.35;6.65;;;;;;;6.52;100.00;99676.81;8361244;28;20025;-59
2021/12/07 02:48:22;;;;;;;27.15;7.18;;;;;;;6.52;100.00;99682.16;8329006;28;20655;-60
2021/12/07 02:52:22;;;;;;;18.27;6.20;;;;;;;6.59;100.00;99694.06;8327074;28;20116;-60
2021/12/07 02:56:24;;;;;;;21.50;7.22;;;;;;;6.59;100.00;99707.47;8329252;28;20037;-60
2021/12/07 03:00:32;;;;;;;25.02;6.88;;;;;;;6.65;100.00;99708.81;8328803;28;20034;-59
2021/12/07 03:04:38;;;;;;;20.95;5.35;;;;;;;6.64;100.00;99721.38;8330651;28;20111;-60
2021/12/07 03:26:16;;;;;;;22.75;6.30;;;;;;;6.54;100.00;99765.28;8345088;28;20252;-60
2021/12/07 03:30:07;;;;;;;25.05;6.47;;;;;;;6.46;100.00;99773.16;8353615;28;20273;-60
2021/12/07 03:34:07;;;;;;;24.23;5.93;;;;;;;6.47;100.00;99780.22;8378856;28;20111;-60
2021/12/07 03:38:09;;;;;;;18.60;6.03;;;;;;;6.39;100.00;99788.06;8362695;28;20041;-60
2021/12/07 03:42:10;;;;;;;18.95;5.55;;;;;;;6.36;100.00;99794.56;8362107;28;20377;-60
2021/12/07 03:46:10;;;;;;;21.50;6.00;;;;;;;6.39;100.00;99794.31;8364439;28;20033;-60
2021/12/07 03:50:11;;;;;;;21.08;5.45;;;;;;;6.36;100.00;99799.94;8363811;28;20036;-61
2021/12/07 03:54:12;;;;;;;19.88;5.57;;;;;;;6.26;100.00;99809.75;8364667;28;20094;-60
2021/12/07 03:58:12;;;;;;;18.38;5.85;;;;;;;6.23;100.00;99826.13;8360969;28;20528;-61
2021/12/07 04:02:13;;;;;;;21.55;5.90;;;;;;;6.18;100.00;99828.34;8358225;28;20501;-61
2021/12/07 04:06:13;;;;;;;15.30;6.35;;;;;;;6.21;100.00;99814.66;8356052;28;20114;-60
2021/12/07 04:10:15;;;;;;;23.58;6.72;;;;;;;6.22;100.00;99828.94;8362983;28;20036;-61
2021/12/07 04:14:16;;;;;;;31.75;7.78;;;;;;;6.16;100.00;99835.66;8360625;28;20043;-61
2021/12/07 04:18:17;;;;;;;27.10;7.07;;;;;;;6.11;100.00;99840.56;8355549;28;20033;-60
2021/12/07 04:22:18;;;;;;;24.08;8.73;;;;;;;6.16;100.00;99853.59;8346891;28;20033;-61
2021/12/07 04:26:18;;;;;;;22.75;7.68;;;;;;;6.21;100.00;99849.53;8328313;28;20033;-61
2021/12/07 04:30:24;;;;;;;28.83;7.78;;;;;;;6.33;100.00;99863.75;8326802;28;20043;-61
2021/12/07 04:34:25;;;;;;;17.35;7.25;;;;;;;6.32;100.00;99870.97;8392557;28;20036;-61
2021/12/07 04:38:26;;;;;;;27.02;7.78;;;;;;;6.30;100.00;99878.28;8390834;28;20255;-61
2021/12/07 04:42:26;;;;;;;23.65;7.00;;;;;;;6.33;100.00;99891.44;8388906;28;20062;-61
2021/12/07 04:46:42;;;;;;;24.75;7.07;;;;;;;6.32;100.00;99881.72;8371244;28;20183;-61
2021/12/07 04:59:33;;;;;;;18.92;5.70;;;;;;;6.17;100.00;99901.78;8325142;28;20272;-61
2021/12/07 05:03:34;;;;;;;19.35;6.55;;;;;;;6.18;100.00;99892.75;8322414;28;20041;-61
2021/12/07 05:07:40;;;;;;;17.08;5.60;;;;;;;6.22;100.00;99896.03;8350957;28;20037;-61
2021/12/07 05:16:27;;;;;;;18.98;5.95;;;;;;;6.26;100.00;99906.38;8360594;28;20423;-61
2021/12/07 05:37:59;;;;;;;27.73;7.05;;;;;;;6.27;100.00;99926.84;8344985;28;20029;-61
2021/12/07 05:41:59;;;;;;;;;;;;;;;6.27;100.00;99929.53;8355196;28;20060;-61
2021/12/07 05:46:00;;;;;;;15.40;5.93;;;;;;;6.17;100.00;99938.47;8360237;28;20408;-61
2021/12/07 05:50:02;;;;;;;28.20;6.72;;;;;;;6.05;100.00;99948.41;8364656;28;20036;-61
2021/12/07 05:54:03;;;;;;;23.55;6.00;;;;;;;6.00;100.00;99977.44;8341299;28;20034;-61
2021/12/07 05:58:04;;;;;;;25.27;5.70;;;;;;;5.92;100.00;99961.13;8358379;28;20037;-61
2021/12/07 06:02:04;;;;;;;18.52;5.38;;;;;;;5.87;100.00;99979.41;8359751;28;20094;-61
2021/12/07 06:06:05;;;;;;;22.85;5.95;;;;;;;5.74;100.00;99971.47;8357178;28;20037;-60
2021/12/07 06:10:06;;;;;;;31.20;8.15;;;;;;;5.70;100.00;99991.47;8369560;28;20062;-61
2021/12/07 06:14:07;;;;;;;19.17;6.07;;;;;;;5.57;100.00;100006.84;8353241;28;20068;-61
2021/12/07 06:18:07;;;;;;;24.98;6.65;;;;;;;5.58;100.00;100000.47;8345387;28;20091;-61
2021/12/07 06:22:08;;;;;;;30.33;6.38;;;;;;;5.54;100.00;100023.16;8354688;28;20049;-61
2021/12/07 06:26:09;;;;;;;26.00;5.47;;;;;;;5.40;100.00;100017.19;8354601;28;20063;-61
2021/12/07 06:30:11;;;;;;;22.85;6.80;;;;;;;5.37;100.00;100031.66;8367210;28;20052;-61
2021/12/07 06:34:12;;;;;;;26.85;6.78;;;;;;;5.37;100.00;100028.97;8362476;28;20041;-61
2021/12/07 06:38:12;;;;;;;29.02;6.88;;;;;;;5.40;100.00;100027.91;8349459;28;20049;-61
2021/12/07 06:42:13;;;;;;;19.98;6.45;;;;;;;5.39;100.00;100036.91;8348378;28;20045;-61
2021/12/07 06:46:13;;;;;;;24.02;6.72;;;;;;;5.24;100.00;100022.88;8366193;28;20037;-61
2021/12/07 06:50:14;;;;;;;26.92;6.13;;;;;;;5.15;100.00;100028.06;8365946;28;20036;-61
2021/12/07 06:54:14;;;;;;;21.55;6.40;;;;;;;4.96;100.00;100027.78;8366730;28;20032;-61
2021/12/07 06:58:15;;;;;;;20.10;6.22;;;;;;;4.76;100.00;100036.50;8366374;28;20493;-61
2021/12/07 07:02:15;;;;;;;23.27;5.95;;;;;;;4.76;100.00;100042.69;8365979;28;20605;-61
2021/12/07 07:06:16;;;;;;;27.77;6.80;;;;;;;4.78;100.00;100043.44;8364477;28;20033;-61
2021/12/07 07:10:18;;;;;;;23.83;7.28;;;;;;;4.58;100.00;100049.47;8363638;28;20394;-61
2021/12/07 07:14:19;;;;;;;22.60;7.25;;;;;;;4.55;100.00;100054.16;8362447;28;20357;-61
2021/12/07 07:18:19;;;;;;;18.27;5.88;;;;;;;4.68;100.00;100060.31;8361140;28;20519;-61
2021/12/07 07:22:20;;;;;;;22.08;6.18;;;;;;;4.76;100.00;100060.59;8361632;28;20108;-61
2021/12/07 07:26:20;;;;;;;30.35;6.20;;;;;;;4.74;100.00;100065.22;8359788;28;20064;-61
2021/12/07 07:30:21;;;;;;;36.63;14.68;;;;;;;4.97;100.00;100067.00;8360785;28;20044;-61
2021/12/07 07:34:22;;;;;;;24.95;6.35;;;;;;;5.09;100.00;100068.75;8364338;28;20044;-61
2021/12/07 07:38:22;;;;;;;21.90;6.05;;;;;;;5.17;100.00;100075.25;8363220;28;20253;-61
2021/12/07 07:42:23;;;;;;;27.80;6.05;;;;;;;5.25;100.00;100067.44;8362504;28;20043;-62
2021/12/07 07:46:23;;;;;;;31.88;9.57;;;;;;;5.14;100.00;100079.97;8361745;28;20052;-61
2021/12/07 07:50:24;;;;;;;20.38;4.65;;;;;;;5.20;100.00;100068.78;8361163;28;20052;-61
2021/12/07 07:54:24;;;;;;;16.75;4.30;;;;;;;5.30;100.00;100076.00;8360235;28;20036;-61
2021/12/07 07:58:25;;;;;;;24.30;5.07;;;;;;;5.33;100.00;100077.56;8360956;28;20037;-61
2021/12/07 08:02:25;;;;;;;14.20;4.47;;;;;;;5.34;100.00;100076.63;8363327;28;20512;-62
2021/12/07 08:06:26;;;;;;;20.48;4.63;;;;;;;5.26;100.00;100076.34;8356223;28;20033;-63
2021/12/07 08:10:28;;;;;;;18.50;3.95;;;;;;;5.26;100.00;100084.38;8354777;28;20111;-63
2021/12/07 08:14:29;;;;;;;15.52;4.63;;;;;;;5.25;100.00;100074.66;8354672;28;20052;-63
2021/12/07 08:18:29;;;;;;;20.77;6.07;;;;;;;5.35;100.00;100072.97;8354244;28;20264;-63
2021/12/07 08:22:30;;;;;;;25.48;6.65;;;;;;;5.44;100.00;100081.16;8354170;28;20045;-63
2021/12/07 08:26:31;;;;;;;14.27;5.22;;;;;;;5.61;100.00;100071.75;8354150;28;20036;-63
2021/12/07 08:30:32;;;;;;;17.38;5.50;;;;;;;5.78;100.00;100071.31;8350342;28;20037;-63
2021/12/07 08:34:32;;;;;;;27.92;5.10;;;;;;;6.70;96.04;100067.28;8352707;28;20033;-62
2021/12/07 08:38:33;;;;;;;18.90;4.70;;;;;;;7.92;89.73;100081.75;8354048;28;20119;-63
2021/12/07 08:42:33;;;;;;;13.45;4.63;;;;;;;8.23;85.04;100100.63;8354234;28;20048;-63
2021/12/07 08:46:34;;;;;;;15.52;4.15;;;;;;;8.91;83.74;100104.16;8353939;28;20046;-63
2021/12/07 08:50:35;;;;;;;15.15;3.90;;;;;;;9.31;81.70;100101.34;8353158;28;20508;-63
2021/12/07 08:59:39;;;;;;;10.07;3.33;;;;;;;9.76;78.73;100102.44;8353399;28;20087;-63
2021/12/07 08:59:56;;;;;;;13.45;3.88;;;;;;;10.01;78.30;100097.22;8353322;28;20060;-63
2021/12/07 09:03:16;;;;;;;15.30;3.45;;;;;;;10.99;75.84;100117.25;8353039;28;20056;-63
2021/12/07 09:07:17;;;;;;;17.23;3.70;;;;;;;10.86;75.12;100094.28;8385992;28;20391;-63
2021/12/07 09:11:18;;;;;;;13.23;2.90;;;;;;;10.38;77.00;100108.09;8385362;28;20040;-63
2021/12/07 09:15:20;;;;;;;16.95;3.25;;;;;;;8.86;81.11;100113.69;8385541;28;20036;-63
2021/12/07 09:19:21;;;;;;;13.35;3.35;;;;;;;7.80;86.95;100115.13;8352269;28;20112;-63
2021/12/07 09:23:22;;;;;;;11.70;2.78;;;;;;;7.30;90.13;100105.16;8353217;28;20037;-63
2021/12/07 09:27:22;;;;;;;15.13;3.28;;;;;;;7.38;90.65;100113.41;8352628;28;20033;-63
2021/12/07 09:31:23;;;;;;;11.10;2.78;;;;;;;8.06;88.37;100112.84;8356273;28;20025;-63
2021/12/07 09:35:24;;;;;;;14.25;2.47;;;;;;;7.69;89.93;100111.66;8351932;28;20041;-63
2021/12/07 09:39:25;;;;;;;16.13;4.35;;;;;;;7.40;90.90;100106.06;8353003;28;20121;-63
2021/12/07 09:43:25;;;;;;;16.17;2.50;;;;;;;7.29;91.65;100108.81;8352743;28;20615;-63
2021/12/07 09:47:25;;;;;;;16.58;2.97;;;;;;;8.59;88.97;100108.94;8347002;28;20040;-63
2021/12/07 09:51:27;;;;;;;13.55;3.13;;;;;;;11.00;77.73;100109.97;8351500;28;20095;-63
2021/12/07 09:55:29;;;;;;;15.48;2.20;;;;;;;10.87;75.86;100113.06;8352122;28;20116;-63
2021/12/07 09:59:29;;;;;;;8.68;2.58;;;;;;;10.55;77.27;100101.84;8351681;28;20037;-63
2021/12/07 10:03:29;;;;;;;11.40;2.28;;;;;;;12.43;71.85;100097.72;8352209;28;20145;-63
2021/12/07 10:07:30;;;;;;;69.15;21.13;;;;;;;13.41;67.43;100085.09;8352147;28;20123;-63
2021/12/07 10:11:31;;;;;;;10.50;1.70;;;;;;;13.95;65.23;100078.97;8352059;28;20117;-63
2021/12/07 10:15:32;;;;;;;11.13;2.00;;;;;;;14.08;63.37;100081.13;8349808;28;20069;-63
2021/12/07 10:19:37;;;;;;;9.70;2.00;;;;;;;14.17;63.31;100070.06;8352099;28;20488;-63
2021/12/07 10:23:42;;;;;;;7.63;1.80;;;;;;;14.32;61.42;100067.50;8358605;28;20473;-63
2021/12/07 10:27:43;;;;;;;7.97;2.38;;;;;;;13.99;62.00;100058.56;8360607;28;20041;-63
2021/12/07 10:31:48;;;;;;;5.45;1.63;;;;;;;13.74;62.64;100056.91;8359198;28;20116;-63
2021/12/07 10:35:48;;;;;;;;;;;;;;;13.13;63.03;100051.16;8358163;28;20031;-63
2021/12/07 10:39:52;;;;;;;7.70;1.87;;;;;;;12.78;64.04;100040.56;8357662;28;19920;-63
2021/12/07 10:44:00;;;;;;;19.42;6.40;;;;;;;12.94;63.60;100056.88;8381107;28;20396;-63
2021/12/07 10:48:21;;;;;;;11.73;3.38;;;;;;;12.70;62.12;100059.53;8351571;28;20037;-63
2021/12/07 10:52:42;;;;;;;14.52;5.88;;;;;;;12.55;62.78;100058.44;8356443;28;20439;-63
2021/12/07 10:56:43;;;;;;;18.40;6.32;;;;;;;12.24;63.95;100057.31;8356461;28;20511;-63
2021/12/07 11:00:45;;;;;;;14.43;4.97;;;;;;;13.49;62.43;100037.09;8359885;28;20400;-63
2021/12/07 11:04:47;;;;;;;18.45;5.03;;;;;;;14.11;59.62;100032.69;8357373;28;20039;-63
2021/12/07 11:08:56;;;;;;;8.73;2.95;;;;;;;13.62;59.38;100025.69;8362082;28;20052;-63
2021/12/07 11:13:12;;;;;;;11.55;2.33;;;;;;;13.05;60.39;100005.84;8355870;28;20392;-64
2021/12/07 11:17:13;;;;;;;11.45;3.20;;;;;;;13.07;61.49;99992.13;8355906;28;20128;-64
2021/12/07 11:21:17;;;;;;;6.57;1.48;;;;;;;12.42;62.96;99987.59;8356426;28;20029;-63
2021/12/07 11:25:31;;;;;;;;;;;;;;;12.54;61.31;99972.69;8356365;28;20033;-64
2021/12/07 11:29:40;;;;;;;5.55;1.63;;;;;;;12.60;60.01;99977.47;8355933;28;19974;-64
2021/12/07 11:33:40;;;;;;;5.90;1.40;;;;;;;12.22;61.21;99967.19;8359734;28;20495;-64
2021/12/07 11:37:43;;;;;;;7.95;1.48;;;;;;;11.54;62.63;99961.78;8355637;28;20464;-63
2021/12/07 11:41:50;;;;;;;6.25;1.42;;;;;;;11.81;62.11;99966.19;8355680;28;20029;-63
2021/12/07 11:45:51;;;;;;;5.40;1.17;;;;;;;12.02;59.80;99952.22;8354788;28;20024;-63
2021/12/07 11:49:51;;;;;;;5.85;1.30;;;;;;;11.93;60.21;99954.88;8355506;28;20118;-63
2021/12/07 11:53:52;;;;;;;7.03;1.30;;;;;;;11.50;60.97;99944.13;8349661;28;20419;-64
2021/12/07 11:57:53;;;;;;;6.63;1.75;;;;;;;11.22;64.25;99947.16;8354097;28;20037;-64
2021/12/07 12:01:54;;;;;;;9.13;1.60;;;;;;;11.51;63.03;99945.00;8357969;28;20688;-64
2021/12/07 12:05:55;;;;;;;6.60;1.52;;;;;;;10.80;65.43;99944.31;8338730;28;20415;-63
2021/12/07 12:09:55;;;;;;;5.28;1.20;;;;;;;9.94;67.34;99952.16;8354227;28;20036;-64
2021/12/07 12:14:36;;;;;;;6.93;1.30;;;;;;;9.36;69.10;99972.28;8352233;28;20505;-63
2021/12/07 12:18:57;;;;;;;6.97;1.52;;;;;;;9.18;71.54;99960.56;8354758;28;20045;-64
2021/12/07 12:23:11;;;;;;;8.90;1.85;;;;;;;8.85;73.15;99948.44;8354297;28;20130;-63
2021/12/07 12:27:19;;;;;;;7.15;1.42;;;;;;;8.98;72.71;99937.31;8353269;28;20106;-63
2021/12/07 12:31:42;;;;;;;7.45;1.55;;;;;;;8.84;71.05;99941.31;8347366;28;20044;-63
2021/12/07 12:35:49;;;;;;;5.28;1.42;;;;;;;8.53;71.38;99930.84;8353940;28;20057;-62
2021/12/07 12:39:57;;;;;;;5.93;1.70;;;;;;;8.73;71.27;99922.63;8387271;28;20184;-64
2021/12/07 12:44:07;;;;;;;7.70;1.63;;;;;;;8.74;71.42;99918.94;8333117;28;20033;-64
2021/12/07 12:48:11;;;;;;;8.88;1.30;;;;;;;8.57;71.50;99908.03;8353073;28;20489;-64
2021/12/07 12:52:12;;;;;;;10.65;1.45;;;;;;;8.45;72.50;99890.31;8350802;28;20041;-64
2021/12/07 12:56:18;;;;;;;4.57;1.40;;;;;;;8.18;74.40;99884.75;8349476;28;20078;-64
2021/12/07 13:00:19;;;;;;;12.88;1.30;;;;;;;8.31;73.20;99890.72;8346185;28;20397;-64
2021/12/07 13:04:26;;;;;;;5.88;1.48;;;;;;;8.39;73.98;99880.09;8341738;28;20058;-64
2021/12/07 13:08:27;;;;;;;7.68;1.40;;;;;;;8.26;74.29;99890.31;8344080;28;20044;-64
2021/12/07 13:12:35;;;;;;;6.68;1.00;;;;;;;8.41;73.95;99883.50;8345481;28;20601;-64
2021/12/07 13:16:36;;;;;;;9.23;1.35;;;;;;;8.35;73.95;99873.31;8349328;28;20124;-64
2021/12/07 13:20:44;;;;;;;11.60;1.23;;;;;;;8.30;74.45;99867.50;8350907;28;20040;-64
2021/12/07 13:24:46;;;;;;;6.90;1.30;;;;;;;8.22;73.84;99856.53;8351615;28;20515;-63
2021/12/07 13:29:01;;;;;;;11.93;1.00;;;;;;;8.01;73.82;99854.84;8331301;28;20181;-64
2021/12/07 13:33:04;;;;;;;5.35;1.30;;;;;;;8.09;73.91;99821.84;8347423;28;20034;-64
2021/12/07 13:37:08;;;;;;;7.70;1.17;;;;;;;8.11;72.34;99827.09;8342008;28;20059;-64
2021/12/07 13:41:20;;;;;;;11.18;1.52;;;;;;;7.94;74.00;99832.16;8346101;28;20033;-64
2021/12/07 13:45:22;;;;;;;6.90;1.33;;;;;;;7.80;74.18;99802.13;8342430;28;20345;-63
2021/12/07 13:49:23;;;;;;;9.95;1.52;;;;;;;7.70;73.38;99812.91;8343616;28;20452;-63
2021/12/07 13:53:24;;;;;;;10.95;1.75;;;;;;;7.63;75.35;99806.34;8349983;28;20390;-64
2021/12/07 13:57:29;;;;;;;3.97;1.10;;;;;;;7.44;75.27;99800.94;8348868;28;20103;-62
2021/12/07 14:01:31;;;;;;;3.42;1.50;;;;;;;7.21;77.82;99788.75;8359112;28;20025;-62
2021/12/07 14:05:37;;;;;;;4.97;2.00;;;;;;;7.10;79.03;99786.16;8354607;28;20091;-62
2021/12/07 14:09:37;;;;;;;4.85;1.88;;;;;;;6.98;79.90;99776.50;8361489;28;20033;-62
2021/12/07 14:13:43;;;;;;;5.40;1.52;;;;;;;6.98;79.65;99760.38;8364314;28;20112;-62
2021/12/07 14:17:48;;;;;;;11.73;2.10;;;;;;;6.95;79.30;99759.81;8362297;28;20405;-62
2021/12/07 14:21:48;;;;;;;8.90;1.60;;;;;;;6.86;80.31;99745.34;8362350;28;20037;-62
2021/12/07 14:26:01;;;;;;;4.78;1.55;;;;;;;6.88;80.62;99738.00;8362229;28;20560;-62
2021/12/07 14:30:03;;;;;;;12.80;4.85;;;;;;;6.71;81.24;99738.63;8360167;28;20056;-62
2021/12/07 14:34:08;;;;;;;8.35;2.20;;;;;;;6.62;81.42;99728.69;8367760;28;20037;-62
2021/12/07 14:38:09;;;;;;;9.48;2.10;;;;;;;6.67;81.08;99729.16;8362442;28;20053;-62
2021/12/07 14:42:18;;;;;;;11.45;2.35;;;;;;;6.64;81.44;99709.75;8350351;28;25419;-62
2021/12/07 14:46:21;;;;;;;8.43;2.25;;;;;;;6.50;81.44;99713.69;8349300;28;20558;-62
2021/12/07 14:50:21;;;;;;;8.52;1.88;;;;;;;6.53;82.03;99700.00;8373155;28;20044;-62
2021/12/07 14:54:22;;;;;;;10.70;2.65;;;;;;;6.50;81.96;99678.78;8351177;28;20052;-62
2021/12/07 14:58:32;;;;;;;14.98;2.78;;;;;;;6.52;81.76;99686.72;8355043;28;20496;-62
2021/12/07 15:02:35;;;;;;;11.95;2.80;;;;;;;6.52;81.48;99671.44;8362395;28;20493;-62
2021/12/07 15:06:40;;;;;;;8.20;2.15;;;;;;;6.53;81.60;99662.41;8362568;28;20036;-62
2021/12/07 15:10:41;;;;;;;;;;;;;;;6.53;81.62;99657.03;8362436;28;20051;-62
2021/12/07 15:14:41;;;;;;;11.43;2.55;;;;;;;6.43;82.41;99634.66;8360743;28;19917;-63
2021/12/07 15:18:46;;;;;;;4.38;2.25;;;;;;;6.35;82.28;99618.41;8357077;28;20492;-62
2021/12/07 15:22:46;;;;;;;7.22;2.05;;;;;;;6.34;82.31;99614.00;8337603;28;20413;-63
2021/12/07 15:26:49;;;;;;;10.82;3.10;;;;;;;6.38;82.75;99615.44;8356010;28;20500;-63
2021/12/07 15:30:52;;;;;;;10.63;3.13;;;;;;;6.23;83.50;99600.69;8359841;28;20033;-63
2021/12/07 15:34:53;;;;;;;7.85;4.10;;;;;;;6.10;84.12;99597.38;8360041;28;20067;-63
2021/12/07 15:39:18;;;;;;;10.05;3.92;;;;;;;6.07;83.70;99599.50;8356347;28;20098;-63
2021/12/07 15:43:19;;;;;;;11.73;3.95;;;;;;;6.03;84.15;99588.19;8354141;28;20037;-63
2021/12/07 15:47:23;;;;;;;16.20;4.57;;;;;;;6.01;84.30;99591.00;8345059;28;20652;-63
2021/12/07 15:51:24;;;;;;;18.52;5.47;;;;;;;5.97;84.69;99594.94;8342984;28;20099;-63
2021/12/07 15:55:29;;;;;;;14.52;4.05;;;;;;;5.85;85.52;99584.41;8354725;28;20029;-63
2021/12/07 15:59:32;;;;;;;9.48;3.08;;;;;;;5.84;85.59;99561.28;8354273;28;20103;-63
2021/12/07 16:03:40;;;;;;;13.23;4.15;;;;;;;5.91;84.78;99551.69;8348018;28;20102;-63
2021/12/07 16:07:44;;;;;;;11.02;2.72;;;;;;;6.00;84.52;99540.16;8349150;28;20045;-63
2021/12/07 16:11:44;;;;;;;9.90;3.30;;;;;;;6.02;84.59;99532.84;8342501;28;20150;-63
2021/12/07 16:15:51;;;;;;;10.75;3.28;;;;;;;6.00;84.71;99526.75;8355009;28;20041;-63
2021/12/07 16:19:52;;;;;;;11.07;3.50;;;;;;;5.95;85.39;99513.75;8330236;28;20424;-63
2021/12/07 16:23:55;;;;;;;13.00;3.08;;;;;;;5.83;85.82;99503.28;8340316;28;20030;-63
2021/12/07 16:27:56;;;;;;;13.57;4.13;;;;;;;5.59;87.43;99497.34;8348572;28;20044;-62
2021/12/07 16:32:01;;;;;;;10.23;3.78;;;;;;;5.49;87.88;99489.25;8363460;28;20496;-62
2021/12/07 16:36:04;;;;;;;8.25;3.60;;;;;;;5.53;87.97;99492.53;8352311;28;20477;-62
2021/12/07 16:40:07;;;;;;;6.93;3.72;;;;;;;5.54;88.37;99489.72;8356627;28;20343;-62
2021/12/07 16:44:07;;;;;;;9.00;3.10;;;;;;;5.60;87.95;99504.41;8355993;28;20033;-63
2021/12/07 16:48:10;;;;;;;11.10;3.75;;;;;;;5.55;88.71;99474.50;8354261;28;20045;-63
2021/12/07 16:52:11;;;;;;;4.85;2.80;;;;;;;5.57;89.19;99456.41;8351139;28;20044;-63
2021/12/07 16:56:12;;;;;;;12.25;3.20;;;;;;;5.61;89.25;99447.13;8347511;28;20115;-62
2021/12/07 17:00:17;;;;;;;15.88;3.55;;;;;;;5.62;89.79;99435.44;8336049;28;20068;-63
2021/12/07 17:04:18;;;;;;;5.13;2.42;;;;;;;5.62;90.22;99436.25;8350882;28;20068;-63
2021/12/07 17:08:20;;;;;;;9.38;2.42;;;;;;;5.70;89.78;99422.16;8350076;28;20052;-62
2021/12/07 17:12:20;;;;;;;7.55;2.53;;;;;;;5.77;89.41;99415.28;8353238;28;20047;-63
2021/12/07 17:16:20;;;;;;;7.93;3.03;;;;;;;5.79;89.46;99402.59;8339532;28;20033;-63
2021/12/07 17:20:22;;;;;;;12.70;3.55;;;;;;;5.75;89.67;99391.31;8338943;28;20052;-63
2021/12/07 17:24:23;;;;;;;7.95;3.53;;;;;;;5.77;89.90;99373.22;8323850;28;20037;-63
2021/12/07 17:28:24;;;;;;;11.63;3.33;;;;;;;5.73;90.58;99362.91;8348009;28;20037;-63
2021/12/07 17:32:24;;;;;;;11.40;3.05;;;;;;;5.69;90.95;99353.47;8330565;28;20041;-62
2021/12/07 17:36:25;;;;;;;10.40;2.72;;;;;;;5.69;90.83;99340.06;8357035;28;20033;-63
2021/12/07 17:40:29;;;;;;;10.95;3.22;;;;;;;5.68;90.84;99331.16;8356584;28;20045;-63
2021/12/07 17:44:29;;;;;;;10.68;3.20;;;;;;;5.67;91.59;99310.72;8351874;28;20044;-64
2021/12/07 17:48:30;;;;;;;10.77;3.20;;;;;;;5.67;91.62;99291.09;8347086;28;20555;-63
2021/12/07 17:52:30;;;;;;;11.13;3.58;;;;;;;5.84;90.13;99266.31;8349967;28;20037;-63
2021/12/07 17:56:31;;;;;;;11.23;2.67;;;;;;;6.10;88.56;99259.34;8350002;28;20052;-63
2021/12/07 18:00:36;;;;;;;11.18;2.33;;;;;;;6.32;87.05;99250.16;8348822;28;20547;-64
2021/12/07 18:04:37;;;;;;;5.07;2.03;;;;;;;6.48;85.85;99205.59;8339299;28;20041;-63
2021/12/07 18:08:38;;;;;;;14.27;2.45;;;;;;;6.57;85.26;99204.72;8330478;28;20037;-63
2021/12/07 18:12:39;;;;;;;7.70;2.92;;;;;;;6.51;85.21;99209.81;8341567;28;20052;-64
2021/12/07 18:16:41;;;;;;;9.15;2.40;;;;;;;6.46;85.99;99199.53;8348012;28;20043;-63
2021/12/07 18:20:42;;;;;;;13.98;3.33;;;;;;;6.39;86.20;99193.06;8345376;28;20125;-64
2021/12/07 18:24:43;;;;;;;6.70;3.03;;;;;;;6.34;86.81;99179.22;8345707;28;20064;-63
2021/12/07 18:28:43;;;;;;;7.90;3.35;;;;;;;6.31;87.11;99150.00;8334037;28;20040;-64
2021/12/07 18:32:44;;;;;;;7.95;2.35;;;;;;;6.34;86.41;99141.66;8343530;28;20530;-63
2021/12/07 18:36:45;;;;;;;7.10;2.45;;;;;;;6.47;85.79;99131.44;8336970;28;20132;-63
2021/12/07 18:40:47;;;;;;;9.82;2.67;;;;;;;6.46;85.41;99129.72;8347829;28;20042;-63
2021/12/07 18:44:48;;;;;;;11.93;2.47;;;;;;;6.57;85.44;99121.50;8345515;28;20036;-64
2021/12/07 18:48:50;;;;;;;8.10;3.17;;;;;;;6.56;85.47;99133.19;8352013;28;20037;-63
2021/12/07 18:52:51;;;;;;;8.50;3.10;;;;;;;6.50;85.47;99112.34;8351639;28;20045;-64
2021/12/07 18:56:51;;;;;;;10.38;2.97;;;;;;;6.49;85.73;99080.28;8351652;28;20087;-64
2021/12/07 19:00:54;;;;;;;7.22;2.38;;;;;;;6.45;86.14;99081.56;8352682;28;20043;-63
2021/12/07 19:04:54;;;;;;;6.13;2.78;;;;;;;6.53;85.88;99070.94;8363659;28;20522;-63
2021/12/07 19:08:55;;;;;;;10.27;3.00;;;;;;;6.50;85.91;99060.50;8354910;28;20461;-63
2021/12/07 19:12:55;;;;;;;6.28;2.97;;;;;;;6.44;86.57;99056.59;8348977;28;20451;-63
2021/12/07 19:16:56;;;;;;;7.50;3.63;;;;;;;6.48;86.48;99033.81;8349881;28;20036;-63
2021/12/07 19:20:57;;;;;;;4.35;2.75;;;;;;;6.55;86.44;99037.56;8332973;28;20033;-63
2021/12/07 19:24:58;;;;;;;6.45;2.53;;;;;;;6.64;85.84;99023.22;8351086;28;20060;-63
2021/12/07 19:28:58;;;;;;;7.75;3.05;;;;;;;6.59;86.46;99024.69;8351087;28;20045;-64
2021/12/07 19:32:59;;;;;;;8.38;2.97;;;;;;;6.58;86.31;99004.19;8350458;28;20040;-64
2021/12/07 19:37:03;;;;;;;11.18;3.55;;;;;;;6.61;86.33;98971.69;8347388;28;20048;-64
2021/12/07 19:41:04;;;;;;;6.60;3.07;;;;;;;6.63;86.62;98972.38;8350947;28;20564;-64
2021/12/07 19:45:07;;;;;;;6.80;2.60;;;;;;;6.66;86.00;98959.50;8350732;28;20045;-64
2021/12/07 19:49:09;;;;;;;10.77;2.63;;;;;;;6.67;86.00;98942.38;8350436;28;20040;-64
2021/12/07 19:53:16;;;;;;;10.98;2.90;;;;;;;6.71;85.63;98946.44;8350475;28;20349;-64
2021/12/07 19:57:16;;;;;;;6.30;2.25;;;;;;;6.75;85.32;98915.63;8348586;28;20066;-65
2021/12/07 20:01:19;;;;;;;5.53;2.13;;;;;;;6.81;85.10;98876.53;8348510;28;20048;-64
2021/12/07 20:05:21;;;;;;;7.35;2.10;;;;;;;6.78;85.02;98883.06;8358011;28;20120;-64
2021/12/07 20:09:22;;;;;;;8.00;2.95;;;;;;;6.87;84.61;98851.75;8345668;28;20501;-64